createdAt,value
2022-10-09T00:01:11.148Z,3.20
2022-10-09T00:03:41.268Z,3.00
2022-10-09T00:06:12.434Z,3.10
2022-10-09T00:08:40.953Z,3.07
2022-10-09T00:11:10.301Z,2.60
2022-10-09T00:13:38.611Z,2.83
2022-10-09T00:16:08.254Z,2.90
2022-10-09T00:18:37.156Z,2.90
2022-10-09T00:21:05.485Z,3.50
2022-10-09T00:23:34.484Z,2.70
2022-10-09T00:26:03.326Z,2.80
2022-10-09T00:28:36.498Z,3.50
2022-10-09T00:31:06.479Z,3.30
2022-10-09T00:33:34.337Z,2.90
2022-10-09T00:36:04.117Z,3.40
2022-10-09T00:38:31.859Z,3.63
2022-10-09T00:41:01.059Z,3.30
2022-10-09T00:43:41.938Z,3.17
2022-10-09T00:46:19.962Z,3.10
2022-10-09T00:48:52.551Z,2.90
2022-10-09T00:51:20.497Z,2.90
2022-10-09T00:53:48.236Z,3.73
2022-10-09T00:56:17.404Z,2.87
2022-10-09T00:58:45.420Z,2.90
2022-10-09T01:01:13.202Z,2.70
2022-10-09T01:03:42.242Z,3.57
2022-10-09T01:06:18.344Z,3.20
2022-10-09T01:08:51.717Z,3.20
2022-10-09T01:11:35.485Z,3.40
2022-10-09T01:14:11.274Z,3.10
2022-10-09T01:16:45.776Z,3.03
2022-10-09T01:19:23.702Z,3.20
2022-10-09T01:22:03.198Z,3.27
2022-10-09T01:24:37.846Z,3.27
2022-10-09T01:27:16.276Z,2.83
2022-10-09T01:29:47.289Z,2.77
2022-10-09T01:32:19.762Z,2.90
2022-10-09T01:34:48.931Z,2.97
2022-10-09T01:37:18.763Z,2.80
2022-10-09T01:39:47.737Z,3.10
2022-10-09T01:42:17.682Z,2.83
2022-10-09T01:44:45.399Z,2.83
2022-10-09T01:47:16.743Z,2.90
2022-10-09T01:49:52.509Z,3.07
2022-10-09T01:52:34.939Z,3.20
2022-10-09T01:55:19.402Z,2.67
2022-10-09T01:57:53.465Z,2.73
2022-10-09T02:00:22.129Z,2.93
2022-10-09T02:02:51.442Z,3.20
2022-10-09T02:05:22.405Z,3.40
2022-10-09T02:07:50.248Z,2.63
2022-10-09T02:10:19.463Z,2.80
2022-10-09T02:12:54.162Z,2.37
2022-10-09T02:15:24.840Z,2.80
2022-10-09T02:17:55.467Z,3.50
2022-10-09T02:20:28.818Z,2.83
2022-10-09T02:22:59.043Z,3.00
2022-10-09T02:25:26.886Z,2.60
2022-10-09T02:27:56.618Z,3.50
2022-10-09T02:30:28.117Z,2.77
2022-10-09T02:32:55.799Z,3.00
2022-10-09T02:35:23.501Z,2.70
2022-10-09T02:37:51.147Z,3.03
2022-10-09T02:40:18.734Z,3.07
2022-10-09T02:42:46.569Z,2.37
2022-10-09T02:45:15.919Z,2.73
2022-10-09T02:47:43.516Z,3.10
2022-10-09T02:50:11.264Z,2.50
2022-10-09T02:52:38.885Z,2.80
2022-10-09T02:55:06.909Z,3.27
2022-10-09T02:57:34.454Z,3.00
2022-10-09T03:00:02.041Z,3.20
2022-10-09T03:02:31.065Z,3.03
2022-10-09T03:04:59.018Z,3.23
2022-10-09T03:07:26.847Z,3.13
2022-10-09T03:09:54.784Z,2.80
2022-10-09T03:12:22.371Z,2.60
2022-10-09T03:14:49.963Z,3.10
2022-10-09T03:17:17.554Z,3.00
2022-10-09T03:19:46.540Z,3.00
2022-10-09T03:22:14.164Z,3.17
2022-10-09T03:24:41.815Z,3.13
2022-10-09T03:27:09.555Z,3.53
2022-10-09T03:29:37.183Z,3.27
2022-10-09T03:32:04.927Z,3.17
2022-10-09T03:34:32.508Z,2.67
2022-10-09T03:37:01.516Z,3.40
2022-10-09T03:39:29.136Z,3.23
2022-10-09T03:41:56.813Z,3.47
2022-10-09T03:44:24.553Z,3.27
2022-10-09T03:46:52.617Z,3.03
2022-10-09T03:49:20.334Z,3.50
2022-10-09T03:51:47.950Z,3.60
2022-10-09T03:54:16.848Z,3.63
2022-10-09T03:56:44.402Z,3.97
2022-10-09T03:59:12.241Z,3.77
2022-10-09T04:01:40.738Z,6.77
2022-10-09T04:04:08.279Z,6.10
2022-10-09T04:06:35.915Z,10.33
2022-10-09T04:09:03.599Z,7.27
2022-10-09T04:11:32.517Z,7.17
2022-10-09T04:14:00.699Z,4.97
2022-10-09T04:16:28.518Z,4.40
2022-10-09T04:18:56.286Z,4.37
2022-10-09T04:21:23.952Z,4.30
2022-10-09T04:23:52.270Z,4.17
2022-10-09T04:26:19.914Z,4.60
2022-10-09T04:28:48.967Z,4.67
2022-10-09T04:31:16.669Z,4.87
2022-10-09T04:33:44.249Z,4.50
2022-10-09T04:36:12.423Z,4.60
2022-10-09T04:38:40.043Z,4.67
2022-10-09T04:41:08.601Z,4.37
2022-10-09T04:43:36.760Z,4.50
2022-10-09T04:46:11.405Z,4.90
2022-10-09T04:48:39.962Z,4.93
2022-10-09T04:51:08.573Z,4.87
2022-10-09T04:53:37.461Z,5.00
2022-10-09T04:56:07.499Z,4.83
2022-10-09T04:58:36.415Z,5.10
2022-10-09T05:01:08.650Z,4.80
2022-10-09T05:03:36.422Z,5.07
2022-10-09T05:06:05.468Z,4.97
2022-10-09T05:08:33.657Z,5.20
2022-10-09T05:11:01.821Z,4.87
2022-10-09T05:13:30.911Z,5.07
2022-10-09T05:16:02.796Z,4.83
2022-10-09T05:18:31.969Z,4.70
2022-10-09T05:20:59.564Z,4.97
2022-10-09T05:23:27.163Z,4.90
2022-10-09T05:25:56.106Z,5.53
2022-10-09T05:28:23.958Z,4.87
2022-10-09T05:30:52.153Z,4.50
2022-10-09T05:33:19.885Z,4.60
2022-10-09T05:35:56.156Z,4.03
2022-10-09T05:38:25.295Z,4.70
2022-10-09T05:40:53.702Z,5.60
2022-10-09T05:43:21.696Z,5.33
2022-10-09T05:45:49.355Z,5.27
2022-10-09T05:48:17.115Z,5.00
2022-10-09T05:50:44.878Z,6.10
2022-10-09T05:53:14.087Z,4.90
2022-10-09T05:55:41.782Z,4.67
2022-10-09T05:58:09.397Z,5.00
2022-10-09T06:00:36.964Z,4.60
2022-10-09T06:03:04.902Z,5.33
2022-10-09T06:05:32.502Z,5.23
2022-10-09T06:08:00.083Z,4.87
2022-10-09T06:10:32.255Z,5.73
2022-10-09T06:13:00.292Z,4.87
2022-10-09T06:15:28.074Z,4.67
2022-10-09T06:17:55.752Z,4.80
2022-10-09T06:20:23.409Z,4.60
2022-10-09T06:22:52.056Z,4.80
2022-10-09T06:25:19.642Z,4.50
2022-10-09T06:27:48.575Z,5.20
2022-10-09T06:30:16.197Z,5.17
2022-10-09T06:32:43.813Z,5.80
2022-10-09T06:35:11.443Z,5.53
2022-10-09T06:37:39.009Z,5.00
2022-10-09T06:40:07.257Z,4.77
2022-10-09T06:42:34.895Z,5.17
2022-10-09T06:45:03.939Z,5.23
2022-10-09T06:47:31.529Z,5.13
2022-10-09T06:49:59.118Z,5.43
2022-10-09T06:52:26.656Z,5.30
2022-10-09T06:54:54.240Z,5.37
2022-10-09T06:57:21.948Z,5.50
2022-10-09T06:59:50.109Z,5.63
2022-10-09T07:02:19.232Z,6.10
2022-10-09T07:04:48.141Z,6.07
2022-10-09T07:07:15.730Z,6.40
2022-10-09T07:09:43.335Z,5.40
2022-10-09T07:12:10.955Z,5.70
2022-10-09T07:14:38.569Z,6.23
2022-10-09T07:17:06.738Z,6.37
2022-10-09T07:19:35.746Z,6.80
2022-10-09T07:22:03.323Z,5.87
2022-10-09T07:24:30.876Z,6.13
2022-10-09T07:26:58.491Z,6.90
2022-10-09T07:29:26.063Z,5.73
2022-10-09T07:31:53.653Z,6.60
2022-10-09T07:34:21.293Z,6.20
2022-10-09T07:36:50.287Z,5.47
2022-10-09T07:39:19.497Z,5.30
2022-10-09T07:41:47.723Z,5.70
2022-10-09T07:44:15.395Z,5.67
2022-10-09T07:46:43.017Z,5.90
2022-10-09T07:49:10.752Z,5.33
2022-10-09T07:51:38.427Z,5.63
2022-10-09T07:54:07.404Z,5.73
2022-10-09T07:56:37.863Z,4.47
2022-10-09T07:59:07.583Z,5.00
2022-10-09T08:01:36.519Z,5.23
2022-10-09T08:04:05.192Z,5.83
2022-10-09T08:06:33.461Z,4.80
2022-10-09T08:09:02.720Z,5.17
2022-10-09T08:11:31.859Z,5.23
2022-10-09T08:14:00.215Z,4.80
2022-10-09T08:16:28.897Z,5.17
2022-10-09T08:18:58.710Z,5.10
2022-10-09T08:21:27.918Z,4.77
2022-10-09T08:23:57.351Z,4.60
2022-10-09T08:26:25.965Z,4.63
2022-10-09T08:28:57.310Z,4.67
2022-10-09T08:31:25.806Z,4.83
2022-10-09T08:33:54.683Z,4.07
2022-10-09T08:36:22.924Z,5.10
2022-10-09T08:38:51.133Z,4.33
2022-10-09T08:41:28.544Z,4.60
2022-10-09T08:44:03.576Z,5.43
2022-10-09T08:46:35.972Z,4.87
2022-10-09T08:49:06.171Z,4.63
2022-10-09T08:51:39.051Z,4.33
2022-10-09T08:54:17.553Z,4.30
2022-10-09T08:56:45.883Z,4.50
2022-10-09T08:59:15.013Z,4.07
2022-10-09T09:01:49.308Z,3.72
2022-10-09T09:04:32.832Z,4.07
2022-10-09T09:07:12.326Z,4.30
2022-10-09T09:09:53.108Z,3.63
2022-10-09T09:12:28.340Z,4.20
2022-10-09T09:15:14.160Z,3.70
2022-10-09T09:17:47.538Z,3.65
2022-10-09T09:20:23.258Z,3.60
2022-10-09T09:22:51.959Z,3.88
2022-10-09T09:25:22.889Z,3.90
2022-10-09T09:27:52.694Z,4.50
2022-10-09T09:30:25.626Z,4.27
2022-10-09T09:33:01.795Z,4.47
2022-10-09T09:35:37.078Z,3.80
2022-10-09T09:38:04.824Z,3.73
2022-10-09T09:40:37.753Z,4.33
2022-10-09T09:43:14.716Z,4.10
2022-10-09T09:45:44.809Z,3.65
2022-10-09T09:48:17.129Z,3.67
2022-10-09T09:50:53.084Z,4.05
2022-10-09T09:53:36.134Z,3.92
2022-10-09T09:56:04.207Z,3.80
2022-10-09T09:58:36.329Z,3.10
2022-10-09T10:01:07.870Z,3.50
2022-10-09T10:03:36.952Z,3.53
2022-10-09T10:06:05.388Z,2.77
2022-10-09T10:08:35.196Z,4.00
2022-10-09T10:11:06.416Z,3.03
2022-10-09T10:13:37.985Z,4.33
2022-10-09T10:16:08.976Z,3.43
2022-10-09T10:18:41.529Z,4.20
2022-10-09T10:21:13.555Z,3.10
2022-10-09T10:23:45.521Z,3.30
2022-10-09T10:26:23.608Z,3.17
2022-10-09T10:28:55.733Z,3.33
2022-10-09T10:31:36.552Z,5.40
2022-10-09T10:34:09.909Z,4.83
2022-10-09T10:36:37.580Z,3.70
2022-10-09T10:39:13.876Z,3.17
2022-10-09T10:41:46.376Z,2.47
2022-10-09T10:44:22.834Z,3.20
2022-10-09T10:46:56.369Z,3.20
2022-10-09T10:49:24.396Z,3.10
2022-10-09T10:52:04.548Z,3.70
2022-10-09T10:54:38.712Z,3.00
2022-10-09T10:57:15.787Z,2.83
2022-10-09T10:59:53.370Z,2.90
2022-10-09T11:02:54.497Z,2.63
2022-10-09T11:05:47.653Z,2.80
2022-10-09T11:08:34.564Z,1.87
2022-10-09T11:11:07.610Z,1.60
2022-10-09T11:13:45.935Z,1.90
2022-10-09T11:16:29.917Z,1.67
2022-10-09T11:19:14.495Z,1.60
2022-10-09T11:21:52.948Z,1.58
2022-10-09T11:24:37.862Z,1.75
2022-10-09T11:27:14.586Z,1.83
2022-10-09T11:29:47.493Z,2.72
2022-10-09T11:32:20.869Z,5.78
2022-10-09T11:34:56.719Z,1.98
2022-10-09T11:37:28.485Z,1.30
2022-10-09T11:39:57.435Z,1.58
2022-10-09T11:42:27.208Z,1.50
2022-10-09T11:45:07.527Z,1.20
2022-10-09T11:47:46.095Z,1.30
2022-10-09T11:50:27.911Z,1.63
2022-10-09T11:53:00.848Z,1.20
2022-10-09T11:55:31.273Z,1.23
2022-10-09T11:58:14.908Z,1.75
2022-10-09T12:00:43.894Z,1.50
2022-10-09T12:03:26.370Z,1.58
2022-10-09T12:06:04.374Z,1.20
2022-10-09T12:08:32.311Z,1.52
2022-10-09T12:11:10.520Z,1.20
2022-10-09T12:13:46.039Z,1.88
2022-10-09T12:16:46.478Z,1.23
2022-10-09T12:19:23.345Z,1.20
2022-10-09T12:21:59.625Z,1.00
2022-10-09T12:24:30.460Z,1.00
2022-10-09T12:27:03.138Z,1.13
2022-10-09T12:29:34.731Z,0.80
2022-10-09T12:32:07.528Z,1.05
2022-10-09T12:34:38.941Z,1.00
2022-10-09T12:37:17.450Z,0.80
2022-10-09T12:39:46.366Z,0.80
2022-10-09T12:42:20.016Z,1.05
2022-10-09T12:44:49.607Z,1.15
2022-10-09T12:47:21.811Z,0.90
2022-10-09T12:49:57.921Z,1.20
2022-10-09T12:52:27.935Z,1.15
2022-10-09T12:54:55.952Z,1.05
2022-10-09T12:57:27.726Z,0.90
2022-10-09T12:59:56.542Z,1.17
2022-10-09T13:02:24.434Z,0.95
2022-10-09T13:04:57.974Z,1.00
2022-10-09T13:07:29.731Z,1.15
2022-10-09T13:10:03.700Z,1.10
2022-10-09T13:12:32.433Z,1.50
2022-10-09T13:15:01.681Z,1.47
2022-10-09T13:20:21.523Z,1.20
2022-10-09T13:22:56.545Z,1.90
2022-10-09T13:25:24.777Z,1.50
2022-10-09T13:27:52.625Z,1.03
2022-10-09T13:30:22.303Z,1.23
2022-10-09T13:32:50.087Z,1.17
2022-10-09T13:35:18.152Z,1.17
2022-10-09T13:37:45.826Z,1.10
2022-10-09T13:40:20.417Z,1.03
2022-10-09T13:42:53.808Z,1.00
2022-10-09T13:45:22.194Z,1.20
2022-10-09T13:47:50.154Z,1.20
2022-10-09T13:50:19.677Z,1.47
2022-10-09T13:52:47.352Z,1.43
2022-10-09T13:55:17.131Z,1.30
2022-10-09T13:57:44.836Z,1.17
2022-10-09T14:00:13.575Z,1.07
2022-10-09T14:02:41.237Z,1.30
2022-10-09T14:05:09.052Z,1.03
2022-10-09T14:07:36.683Z,1.93
2022-10-09T14:10:04.849Z,1.60
2022-10-09T14:12:33.864Z,1.23
2022-10-09T14:15:01.523Z,1.23
2022-10-09T14:17:29.213Z,1.17
2022-10-09T14:19:57.018Z,1.07
2022-10-09T14:22:24.605Z,1.00
2022-10-09T14:24:52.243Z,1.90
2022-10-09T14:27:19.862Z,1.30
2022-10-09T14:29:49.314Z,1.30
2022-10-09T14:32:18.750Z,1.53
2022-10-09T14:34:46.530Z,1.40
2022-10-09T14:37:29.889Z,2.30
2022-10-09T14:40:02.129Z,1.70
2022-10-09T14:42:29.836Z,1.70
2022-10-09T14:44:58.861Z,1.50
2022-10-09T14:47:26.570Z,1.33
2022-10-09T14:49:54.233Z,1.40
2022-10-09T14:52:21.865Z,1.63
2022-10-09T14:54:49.524Z,1.70
2022-10-09T14:57:17.947Z,1.40
2022-10-09T14:59:45.596Z,1.27
2022-10-09T15:02:15.949Z,1.03
2022-10-09T15:04:43.928Z,1.03
2022-10-09T15:07:11.613Z,1.33
2022-10-09T15:09:39.243Z,3.10
2022-10-09T15:12:07.033Z,1.67
2022-10-09T15:14:34.709Z,1.90
2022-10-09T15:17:02.880Z,1.73
2022-10-09T15:19:32.019Z,1.80
2022-10-09T15:21:59.755Z,1.27
2022-10-09T15:24:27.880Z,1.50
2022-10-09T15:26:55.545Z,1.63
2022-10-09T15:29:23.372Z,1.73
2022-10-09T15:31:51.903Z,2.20
2022-10-09T15:34:20.944Z,1.70
2022-10-09T15:36:50.949Z,2.33
2022-10-09T15:39:18.711Z,1.70
2022-10-09T15:41:47.696Z,2.10
2022-10-09T15:44:17.469Z,1.60
2022-10-09T15:46:46.304Z,1.77
2022-10-09T15:49:14.041Z,2.53
2022-10-09T15:51:41.748Z,1.43
2022-10-09T15:54:12.993Z,1.97
2022-10-09T15:56:41.393Z,1.90
2022-10-09T15:59:11.830Z,1.70
2022-10-09T16:01:39.571Z,1.90
2022-10-09T16:04:07.295Z,1.57
2022-10-09T16:06:35.078Z,1.70
2022-10-09T16:09:04.060Z,1.93
2022-10-09T16:11:34.539Z,2.27
2022-10-09T16:14:02.303Z,2.50
2022-10-09T16:16:29.983Z,2.13
2022-10-09T16:18:57.755Z,2.27
2022-10-09T16:21:27.940Z,2.20
2022-10-09T16:23:59.141Z,1.83
2022-10-09T16:26:29.200Z,2.40
2022-10-09T16:28:59.999Z,2.00
2022-10-09T16:31:30.140Z,2.47
2022-10-09T16:33:58.112Z,2.00
2022-10-09T16:36:25.788Z,2.17
2022-10-09T16:38:53.467Z,2.23
2022-10-09T16:41:22.718Z,2.20
2022-10-09T16:43:52.194Z,2.50
2022-10-09T16:46:23.528Z,2.50
2022-10-09T16:48:52.523Z,2.23
2022-10-09T16:51:22.815Z,2.50
2022-10-09T16:53:51.278Z,2.53
2022-10-09T16:56:20.905Z,2.67
2022-10-09T16:58:48.541Z,3.30
2022-10-09T17:01:17.427Z,3.30
2022-10-09T17:03:46.851Z,3.03
2022-10-09T17:06:19.413Z,2.80
2022-10-09T17:08:47.386Z,2.77
2022-10-09T17:11:17.261Z,3.00
2022-10-09T17:13:45.942Z,3.03
2022-10-09T17:16:18.453Z,3.47
2022-10-09T17:18:47.983Z,3.83
2022-10-09T17:21:17.198Z,4.57
2022-10-09T17:23:45.437Z,4.40
2022-10-09T17:26:15.177Z,5.07
2022-10-09T17:28:43.313Z,4.33
2022-10-09T17:31:14.460Z,4.30
2022-10-09T17:33:46.274Z,4.60
2022-10-09T17:36:17.456Z,4.37
2022-10-09T17:38:45.231Z,5.23
2022-10-09T17:41:14.796Z,5.50
2022-10-09T17:43:42.489Z,3.87
2022-10-09T17:46:10.109Z,3.30
2022-10-09T17:48:44.005Z,3.60
2022-10-09T17:51:17.032Z,3.33
2022-10-09T17:53:45.137Z,3.60
2022-10-09T17:56:13.454Z,3.30
2022-10-09T17:58:42.105Z,3.80
2022-10-09T18:01:10.652Z,5.30
2022-10-09T18:03:38.628Z,7.60
2022-10-09T18:06:08.021Z,6.33
2022-10-09T18:08:37.657Z,6.97
2022-10-09T18:11:08.663Z,7.27
2022-10-09T18:13:37.809Z,7.13
2022-10-09T18:16:07.157Z,7.97
2022-10-09T18:18:35.371Z,8.63
2022-10-09T18:21:05.097Z,10.13
2022-10-09T18:23:32.967Z,7.03
2022-10-09T18:26:07.203Z,6.27
2022-10-09T18:28:35.193Z,6.13
2022-10-09T18:31:06.105Z,4.83
2022-10-09T18:33:33.964Z,5.83
2022-10-09T18:36:07.085Z,5.90
2022-10-09T18:38:35.074Z,6.40
2022-10-09T18:41:04.358Z,5.40
2022-10-09T18:43:31.945Z,6.20
2022-10-09T18:46:00.725Z,6.13
2022-10-09T18:48:30.485Z,5.50
2022-10-09T18:50:58.543Z,6.70
2022-10-09T18:53:26.311Z,5.67
2022-10-09T18:55:54.252Z,5.60
2022-10-09T18:58:23.854Z,5.33
2022-10-09T19:00:51.578Z,5.30
2022-10-09T19:03:19.224Z,4.40
2022-10-09T19:05:46.887Z,4.70
2022-10-09T19:08:14.515Z,5.30
2022-10-09T19:10:42.222Z,5.03
2022-10-09T19:13:09.765Z,5.17
2022-10-09T19:15:38.794Z,5.23
2022-10-09T19:18:06.902Z,5.73
2022-10-09T19:20:34.551Z,5.50
2022-10-09T19:23:02.204Z,5.67
2022-10-09T19:25:29.800Z,5.95
2022-10-09T19:27:57.462Z,5.03
2022-10-09T19:30:25.094Z,4.93
2022-10-09T19:32:54.049Z,4.67
2022-10-09T19:35:21.644Z,4.60
2022-10-09T19:37:49.503Z,4.70
2022-10-09T19:40:17.460Z,4.20
2022-10-09T19:42:45.038Z,4.80
2022-10-09T19:45:12.718Z,4.47
2022-10-09T19:47:40.354Z,4.43
2022-10-09T19:50:10.027Z,5.07
2022-10-09T19:52:37.687Z,4.90
2022-10-09T19:55:05.964Z,4.73
2022-10-09T19:57:33.674Z,4.60
2022-10-09T20:00:01.272Z,4.70
2022-10-09T20:02:28.912Z,4.03
2022-10-09T20:04:56.555Z,4.23
2022-10-09T20:07:25.631Z,5.73
2022-10-09T20:09:53.276Z,4.63
2022-10-09T20:12:21.042Z,4.60
2022-10-09T20:14:48.687Z,5.80
2022-10-09T20:17:17.135Z,5.57
2022-10-09T20:19:45.876Z,5.47
2022-10-09T20:22:13.681Z,5.23
2022-10-09T20:24:42.728Z,5.53
2022-10-09T20:27:10.322Z,5.67
2022-10-09T20:29:38.149Z,5.37
2022-10-09T20:32:05.822Z,5.23
2022-10-09T20:34:33.440Z,5.57
2022-10-09T20:37:01.199Z,6.07
2022-10-09T20:39:28.788Z,5.87
2022-10-09T20:41:58.400Z,6.73
2022-10-09T20:44:25.950Z,5.83
2022-10-09T20:46:56.638Z,5.27
2022-10-09T20:49:24.373Z,5.23
2022-10-09T20:51:52.791Z,4.80
2022-10-09T20:54:21.979Z,5.60
2022-10-09T20:56:50.439Z,6.37
2022-10-09T20:59:19.797Z,5.73
2022-10-09T21:01:47.605Z,5.33
2022-10-09T21:04:15.263Z,5.53
2022-10-09T21:06:43.002Z,5.83
2022-10-09T21:09:10.790Z,5.63
2022-10-09T21:11:40.218Z,5.73
2022-10-09T21:14:08.093Z,6.07
2022-10-09T21:16:37.268Z,6.00
2022-10-09T21:19:06.154Z,5.70
2022-10-09T21:21:34.859Z,6.50
2022-10-09T21:24:03.319Z,5.73
2022-10-09T21:26:35.477Z,5.77
2022-10-09T21:29:04.048Z,6.80
2022-10-09T21:31:33.569Z,6.73
2022-10-09T21:34:03.010Z,7.17
2022-10-09T21:36:51.212Z,7.37
2022-10-09T21:39:27.431Z,7.33
2022-10-09T21:41:56.018Z,6.90
2022-10-09T21:44:23.655Z,6.80
2022-10-09T21:46:51.319Z,7.30
2022-10-09T21:49:22.547Z,7.00
2022-10-09T21:51:50.384Z,7.17
2022-10-09T21:54:18.498Z,8.07
2022-10-09T21:56:46.127Z,7.87
2022-10-09T21:59:14.144Z,7.83
2022-10-09T22:01:41.750Z,6.53
2022-10-09T22:04:09.386Z,7.03
2022-10-09T22:06:38.330Z,7.43
2022-10-09T22:09:05.917Z,6.60
2022-10-09T22:11:33.500Z,6.70
2022-10-09T22:14:01.090Z,6.40
2022-10-09T22:16:28.688Z,7.00
2022-10-09T22:18:56.278Z,7.00
2022-10-09T22:21:23.949Z,7.27
2022-10-09T22:23:52.958Z,7.87
2022-10-09T22:26:22.750Z,7.97
2022-10-09T22:28:50.643Z,7.57
2022-10-09T22:31:20.557Z,7.97
2022-10-09T22:33:50.876Z,6.67
2022-10-09T22:36:20.056Z,6.67
2022-10-09T22:38:48.044Z,6.47
2022-10-09T22:41:18.370Z,6.23
2022-10-09T22:43:48.629Z,5.43
2022-10-09T22:46:19.260Z,4.93
2022-10-09T22:48:46.910Z,5.37
2022-10-09T22:51:16.837Z,5.30
2022-10-09T22:53:47.229Z,5.00
2022-10-09T22:56:18.887Z,5.77
2022-10-09T22:58:47.623Z,4.70
2022-10-09T23:01:17.434Z,4.70
2022-10-09T23:03:45.098Z,5.33
2022-10-09T23:06:15.603Z,5.27
2022-10-09T23:08:45.202Z,4.97
2022-10-09T23:11:13.883Z,5.43
2022-10-09T23:13:42.941Z,4.83
2022-10-09T23:16:13.091Z,4.20
2022-10-09T23:18:42.079Z,4.77
2022-10-09T23:21:12.654Z,4.00
2022-10-09T23:23:40.359Z,4.67
2022-10-09T23:26:10.003Z,4.67
2022-10-09T23:28:37.891Z,3.90
2022-10-09T23:31:08.873Z,4.47
2022-10-09T23:33:38.438Z,4.33
2022-10-09T23:36:07.734Z,4.13
2022-10-09T23:38:35.828Z,3.97
2022-10-09T23:41:05.605Z,3.90
2022-10-09T23:43:34.795Z,3.80
2022-10-09T23:46:04.499Z,4.30
2022-10-09T23:48:34.063Z,3.60
2022-10-09T23:51:01.707Z,3.90
2022-10-09T23:53:29.645Z,3.97
2022-10-09T23:55:57.208Z,4.07
2022-10-09T23:58:25.293Z,4.00
